sensor_id;sensor_type;location;lat;lon;timestamp;temperature;humidity
41437;DHT22;27178;49.460;10.850;2023-07-31T00:01:08;23.00;65.50
41437;DHT22;27178;49.460;10.850;2023-07-31T00:03:36;22.00;65.40
41437;DHT22;27178;49.460;10.850;2023-07-31T00:06:04;22.00;65.20
41437;DHT22;27178;49.460;10.850;2023-07-31T00:08:32;23.20;65.90
41437;DHT22;27178;49.460;10.850;2023-07-31T00:11:00;23.00;65.10
41437;DHT22;27178;49.460;10.850;2023-07-31T00:13:28;22.30;64.50
41437;DHT22;27178;49.460;10.850;2023-07-31T00:15:57;22.30;65.80
41437;DHT22;27178;49.460;10.850;2023-07-31T00:18:26;21.80;64.90
41437;DHT22;27178;49.460;10.850;2023-07-31T00:20:54;22.40;65.60
41437;DHT22;27178;49.460;10.850;2023-07-31T00:23:22;22.20;65.60
41437;DHT22;27178;49.460;10.850;2023-07-31T00:25:50;23.30;66.50
41437;DHT22;27178;49.460;10.850;2023-07-31T00:28:18;22.30;66.00
41437;DHT22;27178;49.460;10.850;2023-07-31T00:30:46;22.20;66.10
41437;DHT22;27178;49.460;10.850;2023-07-31T00:33:15;22.60;66.70
41437;DHT22;27178;49.460;10.850;2023-07-31T00:35:44;21.80;66.00
41437;DHT22;27178;49.460;10.850;2023-07-31T00:38:12;22.50;66.60
41437;DHT22;27178;49.460;10.850;2023-07-31T00:40:40;22.40;66.00
41437;DHT22;27178;49.460;10.850;2023-07-31T00:43:08;22.80;66.20
41437;DHT22;27178;49.460;10.850;2023-07-31T00:45:37;21.90;65.80
41437;DHT22;27178;49.460;10.850;2023-07-31T00:48:05;21.80;65.90
41437;DHT22;27178;49.460;10.850;2023-07-31T00:50:37;21.80;66.10
41437;DHT22;27178;49.460;10.850;2023-07-31T00:53:05;23.90;67.90
41437;DHT22;27178;49.460;10.850;2023-07-31T00:55:33;21.80;66.50
41437;DHT22;27178;49.460;10.850;2023-07-31T00:58:01;22.50;67.10
41437;DHT22;27178;49.460;10.850;2023-07-31T01:00:30;22.50;67.10
41437;DHT22;27178;49.460;10.850;2023-07-31T01:02:58;22.80;66.90
41437;DHT22;27178;49.460;10.850;2023-07-31T01:05:36;22.60;67.20
41437;DHT22;27178;49.460;10.850;2023-07-31T01:08:15;22.20;66.70
41437;DHT22;27178;49.460;10.850;2023-07-31T01:10:50;21.80;65.80
41437;DHT22;27178;49.460;10.850;2023-07-31T01:13:21;21.80;66.10
41437;DHT22;27178;49.460;10.850;2023-07-31T01:15:49;22.60;67.30
41437;DHT22;27178;49.460;10.850;2023-07-31T01:18:17;21.80;66.80
41437;DHT22;27178;49.460;10.850;2023-07-31T01:20:51;21.80;66.30
41437;DHT22;27178;49.460;10.850;2023-07-31T01:23:48;23.10;67.00
41437;DHT22;27178;49.460;10.850;2023-07-31T01:26:22;21.80;65.80
41437;DHT22;27178;49.460;10.850;2023-07-31T01:29:00;21.80;66.90
41437;DHT22;27178;49.460;10.850;2023-07-31T01:31:30;22.00;66.50
41437;DHT22;27178;49.460;10.850;2023-07-31T01:34:00;21.80;67.60
41437;DHT22;27178;49.460;10.850;2023-07-31T01:36:30;21.80;67.40
41437;DHT22;27178;49.460;10.850;2023-07-31T01:38:59;22.30;66.90
41437;DHT22;27178;49.460;10.850;2023-07-31T01:41:29;22.30;66.70
41437;DHT22;27178;49.460;10.850;2023-07-31T01:43:57;22.10;66.90
41437;DHT22;27178;49.460;10.850;2023-07-31T01:46:26;22.40;66.80
41437;DHT22;27178;49.460;10.850;2023-07-31T01:48:54;22.60;66.60
41437;DHT22;27178;49.460;10.850;2023-07-31T01:51:22;23.10;67.90
41437;DHT22;27178;49.460;10.850;2023-07-31T01:53:50;22.30;67.50
41437;DHT22;27178;49.460;10.850;2023-07-31T01:56:18;22.50;67.10
41437;DHT22;27178;49.460;10.850;2023-07-31T01:58:48;22.00;67.60
41437;DHT22;27178;49.460;10.850;2023-07-31T02:01:17;21.40;66.90
41437;DHT22;27178;49.460;10.850;2023-07-31T02:03:45;23.10;68.60
41437;DHT22;27178;49.460;10.850;2023-07-31T02:06:13;21.80;67.50
41437;DHT22;27178;49.460;10.850;2023-07-31T02:08:41;22.90;68.40
41437;DHT22;27178;49.460;10.850;2023-07-31T02:11:09;21.80;67.50
41437;DHT22;27178;49.460;10.850;2023-07-31T02:13:37;21.70;67.60
41437;DHT22;27178;49.460;10.850;2023-07-31T02:16:08;21.80;67.40
41437;DHT22;27178;49.460;10.850;2023-07-31T02:18:36;22.20;67.20
41437;DHT22;27178;49.460;10.850;2023-07-31T02:21:04;22.20;67.20
41437;DHT22;27178;49.460;10.850;2023-07-31T02:23:32;22.90;67.60
41437;DHT22;27178;49.460;10.850;2023-07-31T02:26:01;21.70;67.20
41437;DHT22;27178;49.460;10.850;2023-07-31T02:28:30;21.70;66.90
41437;DHT22;27178;49.460;10.850;2023-07-31T02:30:59;21.60;67.30
41437;DHT22;27178;49.460;10.850;2023-07-31T02:33:28;22.70;68.20
41437;DHT22;27178;49.460;10.850;2023-07-31T02:35:57;23.20;68.40
41437;DHT22;27178;49.460;10.850;2023-07-31T02:38:25;21.60;67.40
41437;DHT22;27178;49.460;10.850;2023-07-31T02:40:53;21.70;67.90
41437;DHT22;27178;49.460;10.850;2023-07-31T02:43:21;23.10;68.80
41437;DHT22;27178;49.460;10.850;2023-07-31T02:45:51;22.30;68.60
41437;DHT22;27178;49.460;10.850;2023-07-31T02:48:19;23.20;68.90
41437;DHT22;27178;49.460;10.850;2023-07-31T02:50:49;22.10;69.10
41437;DHT22;27178;49.460;10.850;2023-07-31T02:53:16;23.10;68.60
41437;DHT22;27178;49.460;10.850;2023-07-31T02:55:44;22.70;68.40
41437;DHT22;27178;49.460;10.850;2023-07-31T02:58:12;22.60;68.60
41437;DHT22;27178;49.460;10.850;2023-07-31T03:00:42;21.50;68.10
41437;DHT22;27178;49.460;10.850;2023-07-31T03:03:10;23.00;68.60
41437;DHT22;27178;49.460;10.850;2023-07-31T03:05:39;23.20;69.30
41437;DHT22;27178;49.460;10.850;2023-07-31T03:08:08;21.40;68.00
41437;DHT22;27178;49.460;10.850;2023-07-31T03:10:36;22.90;68.80
41437;DHT22;27178;49.460;10.850;2023-07-31T03:13:04;22.50;68.80
41437;DHT22;27178;49.460;10.850;2023-07-31T03:15:33;21.40;68.00
41437;DHT22;27178;49.460;10.850;2023-07-31T03:18:01;21.80;68.40
41437;DHT22;27178;49.460;10.850;2023-07-31T03:20:29;21.60;68.50
41437;DHT22;27178;49.460;10.850;2023-07-31T03:22:57;21.30;68.50
41437;DHT22;27178;49.460;10.850;2023-07-31T03:25:27;21.30;68.50
41437;DHT22;27178;49.460;10.850;2023-07-31T03:27:55;21.30;68.40
41437;DHT22;27178;49.460;10.850;2023-07-31T03:30:23;21.50;68.40
41437;DHT22;27178;49.460;10.850;2023-07-31T03:32:51;22.40;69.20
41437;DHT22;27178;49.460;10.850;2023-07-31T03:35:19;22.80;69.50
41437;DHT22;27178;49.460;10.850;2023-07-31T03:37:48;21.30;68.60
41437;DHT22;27178;49.460;10.850;2023-07-31T03:40:16;21.90;68.30
41437;DHT22;27178;49.460;10.850;2023-07-31T03:42:46;21.20;68.60
41437;DHT22;27178;49.460;10.850;2023-07-31T03:45:14;21.20;68.50
41437;DHT22;27178;49.460;10.850;2023-07-31T03:47:42;20.50;68.20
41437;DHT22;27178;49.460;10.850;2023-07-31T03:50:10;22.10;69.30
41437;DHT22;27178;49.460;10.850;2023-07-31T03:52:38;22.80;69.70
41437;DHT22;27178;49.460;10.850;2023-07-31T03:55:07;21.20;69.30
41437;DHT22;27178;49.460;10.850;2023-07-31T03:57:36;21.10;68.60
41437;DHT22;27178;49.460;10.850;2023-07-31T04:00:07;21.10;68.30
41437;DHT22;27178;49.460;10.850;2023-07-31T04:02:35;21.10;68.70
41437;DHT22;27178;49.460;10.850;2023-07-31T04:05:03;21.90;69.10
41437;DHT22;27178;49.460;10.850;2023-07-31T04:07:32;21.10;68.80
41437;DHT22;27178;49.460;10.850;2023-07-31T04:10:00;21.10;68.90
41437;DHT22;27178;49.460;10.850;2023-07-31T04:12:28;21.80;69.50
41437;DHT22;27178;49.460;10.850;2023-07-31T04:14:56;21.10;68.40
41437;DHT22;27178;49.460;10.850;2023-07-31T04:17:26;21.10;68.80
41437;DHT22;27178;49.460;10.850;2023-07-31T04:19:54;21.00;68.90
41437;DHT22;27178;49.460;10.850;2023-07-31T04:22:23;21.00;69.30
41437;DHT22;27178;49.460;10.850;2023-07-31T04:24:51;21.00;68.60
41437;DHT22;27178;49.460;10.850;2023-07-31T04:27:18;21.20;69.30
41437;DHT22;27178;49.460;10.850;2023-07-31T04:29:47;21.00;69.10
41437;DHT22;27178;49.460;10.850;2023-07-31T04:32:15;21.40;69.10
41437;DHT22;27178;49.460;10.850;2023-07-31T04:34:45;21.00;68.70
41437;DHT22;27178;49.460;10.850;2023-07-31T04:37:15;22.10;69.50
41437;DHT22;27178;49.460;10.850;2023-07-31T04:39:43;21.70;69.90
41437;DHT22;27178;49.460;10.850;2023-07-31T04:42:11;21.00;69.30
41437;DHT22;27178;49.460;10.850;2023-07-31T04:44:39;21.00;69.70
41437;DHT22;27178;49.460;10.850;2023-07-31T04:47:07;22.90;71.00
41437;DHT22;27178;49.460;10.850;2023-07-31T04:49:35;20.90;69.50
41437;DHT22;27178;49.460;10.850;2023-07-31T04:52:05;22.30;70.40
41437;DHT22;27178;49.460;10.850;2023-07-31T04:54:33;21.00;69.70
41437;DHT22;27178;49.460;10.850;2023-07-31T04:57:02;21.80;70.40
41437;DHT22;27178;49.460;10.850;2023-07-31T04:59:34;20.90;69.60
41437;DHT22;27178;49.460;10.850;2023-07-31T05:02:04;22.60;71.00
41437;DHT22;27178;49.460;10.850;2023-07-31T05:04:32;21.00;70.10
41437;DHT22;27178;49.460;10.850;2023-07-31T05:07:01;21.00;69.80
41437;DHT22;27178;49.460;10.850;2023-07-31T05:09:30;22.30;70.50
41437;DHT22;27178;49.460;10.850;2023-07-31T05:11:58;21.00;70.00
41437;DHT22;27178;49.460;10.850;2023-07-31T05:14:26;21.90;70.70
41437;DHT22;27178;49.460;10.850;2023-07-31T05:16:55;21.00;70.40
41437;DHT22;27178;49.460;10.850;2023-07-31T05:19:23;22.40;71.50
41437;DHT22;27178;49.460;10.850;2023-07-31T05:21:51;21.00;70.20
41437;DHT22;27178;49.460;10.850;2023-07-31T05:24:19;21.00;70.20
41437;DHT22;27178;49.460;10.850;2023-07-31T05:26:48;21.30;70.80
41437;DHT22;27178;49.460;10.850;2023-07-31T05:29:17;22.70;72.10
41437;DHT22;27178;49.460;10.850;2023-07-31T05:31:47;21.10;71.30
41437;DHT22;27178;49.460;10.850;2023-07-31T05:34:15;22.00;71.90
41437;DHT22;27178;49.460;10.850;2023-07-31T05:36:42;22.20;71.90
41437;DHT22;27178;49.460;10.850;2023-07-31T05:39:10;21.20;71.70
41437;DHT22;27178;49.460;10.850;2023-07-31T05:41:39;22.70;72.30
41437;DHT22;27178;49.460;10.850;2023-07-31T05:44:08;22.60;72.60
41437;DHT22;27178;49.460;10.850;2023-07-31T05:46:36;21.40;72.00
41437;DHT22;27178;49.460;10.850;2023-07-31T05:49:07;21.40;72.10
41437;DHT22;27178;49.460;10.850;2023-07-31T05:51:35;21.50;71.70
41437;DHT22;27178;49.460;10.850;2023-07-31T05:54:04;21.50;70.90
41437;DHT22;27178;49.460;10.850;2023-07-31T05:56:32;21.80;71.80
41437;DHT22;27178;49.460;10.850;2023-07-31T05:59:02;21.50;71.00
41437;DHT22;27178;49.460;10.850;2023-07-31T06:01:33;22.30;71.60
41437;DHT22;27178;49.460;10.850;2023-07-31T06:04:03;21.70;71.00
41437;DHT22;27178;49.460;10.850;2023-07-31T06:06:31;21.60;70.90
41437;DHT22;27178;49.460;10.850;2023-07-31T06:08:59;21.70;71.70
41437;DHT22;27178;49.460;10.850;2023-07-31T06:11:27;23.20;72.40
41437;DHT22;27178;49.460;10.850;2023-07-31T06:13:55;22.60;71.50
41437;DHT22;27178;49.460;10.850;2023-07-31T06:16:24;21.70;71.10
41437;DHT22;27178;49.460;10.850;2023-07-31T06:18:55;21.80;72.20
41437;DHT22;27178;49.460;10.850;2023-07-31T06:21:24;21.60;70.80
41437;DHT22;27178;49.460;10.850;2023-07-31T06:23:52;21.70;71.10
41437;DHT22;27178;49.460;10.850;2023-07-31T06:26:20;21.80;70.20
41437;DHT22;27178;49.460;10.850;2023-07-31T06:28:49;21.80;71.00
41437;DHT22;27178;49.460;10.850;2023-07-31T06:31:17;21.90;71.30
41437;DHT22;27178;49.460;10.850;2023-07-31T06:33:50;21.80;71.00
41437;DHT22;27178;49.460;10.850;2023-07-31T06:36:21;22.20;70.60
41437;DHT22;27178;49.460;10.850;2023-07-31T06:38:49;21.80;70.50
41437;DHT22;27178;49.460;10.850;2023-07-31T06:41:18;23.20;71.40
41437;DHT22;27178;49.460;10.850;2023-07-31T06:43:46;22.90;71.80
41437;DHT22;27178;49.460;10.850;2023-07-31T06:46:14;23.20;71.60
41437;DHT22;27178;49.460;10.850;2023-07-31T06:48:42;21.60;70.10
41437;DHT22;27178;49.460;10.850;2023-07-31T06:51:10;22.10;70.50
41437;DHT22;27178;49.460;10.850;2023-07-31T06:53:40;21.90;70.60
41437;DHT22;27178;49.460;10.850;2023-07-31T06:56:08;22.00;70.40
41437;DHT22;27178;49.460;10.850;2023-07-31T06:58:36;23.30;71.30
41437;DHT22;27178;49.460;10.850;2023-07-31T07:01:04;22.00;70.30
41437;DHT22;27178;49.460;10.850;2023-07-31T07:03:33;22.70;71.40
41437;DHT22;27178;49.460;10.850;2023-07-31T07:06:01;22.10;71.10
41437;DHT22;27178;49.460;10.850;2023-07-31T07:08:29;23.60;71.90
41437;DHT22;27178;49.460;10.850;2023-07-31T07:10:58;21.70;70.60
41437;DHT22;27178;49.460;10.850;2023-07-31T07:13:27;22.70;70.70
41437;DHT22;27178;49.460;10.850;2023-07-31T07:15:55;24.20;71.60
41437;DHT22;27178;49.460;10.850;2023-07-31T07:18:23;22.20;70.70
41437;DHT22;27178;49.460;10.850;2023-07-31T07:20:52;22.00;70.20
41437;DHT22;27178;49.460;10.850;2023-07-31T07:23:20;22.60;70.20
41437;DHT22;27178;49.460;10.850;2023-07-31T07:25:49;22.30;69.70
41437;DHT22;27178;49.460;10.850;2023-07-31T07:28:19;23.30;70.50
41437;DHT22;27178;49.460;10.850;2023-07-31T07:30:51;22.30;70.10
41437;DHT22;27178;49.460;10.850;2023-07-31T07:33:20;22.30;69.50
41437;DHT22;27178;49.460;10.850;2023-07-31T07:35:48;23.30;70.70
41437;DHT22;27178;49.460;10.850;2023-07-31T07:38:16;22.40;69.90
41437;DHT22;27178;49.460;10.850;2023-07-31T07:40:45;23.30;70.60
41437;DHT22;27178;49.460;10.850;2023-07-31T07:43:18;22.10;69.60
41437;DHT22;27178;49.460;10.850;2023-07-31T07:45:46;22.50;69.80
41437;DHT22;27178;49.460;10.850;2023-07-31T07:48:14;22.50;69.80
41437;DHT22;27178;49.460;10.850;2023-07-31T07:50:43;23.50;70.60
41437;DHT22;27178;49.460;10.850;2023-07-31T07:53:12;22.50;69.90
41437;DHT22;27178;49.460;10.850;2023-07-31T07:55:40;24.00;70.90
41437;DHT22;27178;49.460;10.850;2023-07-31T07:58:08;23.40;70.60
41437;DHT22;27178;49.460;10.850;2023-07-31T08:00:38;22.50;68.40
41437;DHT22;27178;49.460;10.850;2023-07-31T08:03:06;23.50;70.10
41437;DHT22;27178;49.460;10.850;2023-07-31T08:05:34;22.90;68.20
41437;DHT22;27178;49.460;10.850;2023-07-31T08:08:02;22.60;68.20
41437;DHT22;27178;49.460;10.850;2023-07-31T08:10:30;22.60;68.10
41437;DHT22;27178;49.460;10.850;2023-07-31T08:12:59;22.70;67.80
41437;DHT22;27178;49.460;10.850;2023-07-31T08:15:27;24.20;68.30
41437;DHT22;27178;49.460;10.850;2023-07-31T08:17:56;22.40;67.30
41437;DHT22;27178;49.460;10.850;2023-07-31T08:20:26;23.20;67.00
41437;DHT22;27178;49.460;10.850;2023-07-31T08:22:55;23.60;67.50
41437;DHT22;27178;49.460;10.850;2023-07-31T08:25:23;24.40;67.70
41437;DHT22;27178;49.460;10.850;2023-07-31T08:27:51;22.90;66.70
41437;DHT22;27178;49.460;10.850;2023-07-31T08:30:20;23.20;66.80
41437;DHT22;27178;49.460;10.850;2023-07-31T08:32:49;22.90;66.50
41437;DHT22;27178;49.460;10.850;2023-07-31T08:35:18;24.40;67.20
41437;DHT22;27178;49.460;10.850;2023-07-31T08:37:46;23.40;66.60
41437;DHT22;27178;49.460;10.850;2023-07-31T08:40:15;22.90;66.00
41437;DHT22;27178;49.460;10.850;2023-07-31T08:42:44;23.00;65.80
41437;DHT22;27178;49.460;10.850;2023-07-31T08:45:14;23.20;66.10
41437;DHT22;27178;49.460;10.850;2023-07-31T08:47:45;23.60;66.20
41437;DHT22;27178;49.460;10.850;2023-07-31T08:50:15;23.40;65.90
41437;DHT22;27178;49.460;10.850;2023-07-31T08:52:46;22.60;65.40
41437;DHT22;27178;49.460;10.850;2023-07-31T08:55:15;22.90;65.00
41437;DHT22;27178;49.460;10.850;2023-07-31T08:57:43;23.00;65.40
41437;DHT22;27178;49.460;10.850;2023-07-31T09:00:12;24.50;66.10
41437;DHT22;27178;49.460;10.850;2023-07-31T09:02:44;23.00;65.20
41437;DHT22;27178;49.460;10.850;2023-07-31T09:05:13;23.80;65.40
41437;DHT22;27178;49.460;10.850;2023-07-31T09:07:44;23.00;64.90
41437;DHT22;27178;49.460;10.850;2023-07-31T09:10:15;24.20;65.90
41437;DHT22;27178;49.460;10.850;2023-07-31T09:12:44;23.00;65.30
41437;DHT22;27178;49.460;10.850;2023-07-31T09:15:13;23.10;65.70
41437;DHT22;27178;49.460;10.850;2023-07-31T09:18:02;23.80;65.80
41437;DHT22;27178;49.460;10.850;2023-07-31T09:20:32;23.20;65.70
41437;DHT22;27178;49.460;10.850;2023-07-31T09:23:08;23.20;65.70
41437;DHT22;27178;49.460;10.850;2023-07-31T09:25:40;24.90;65.90
41437;DHT22;27178;49.460;10.850;2023-07-31T09:28:11;23.30;65.50
41437;DHT22;27178;49.460;10.850;2023-07-31T09:30:45;22.90;64.70
41437;DHT22;27178;49.460;10.850;2023-07-31T09:33:15;25.20;65.90
41437;DHT22;27178;49.460;10.850;2023-07-31T09:35:43;24.90;66.30
41437;DHT22;27178;49.460;10.850;2023-07-31T09:38:12;23.50;64.90
41437;DHT22;27178;49.460;10.850;2023-07-31T09:40:43;23.40;64.40
41437;DHT22;27178;49.460;10.850;2023-07-31T09:43:13;24.30;64.90
41437;DHT22;27178;49.460;10.850;2023-07-31T09:45:43;25.10;65.60
41437;DHT22;27178;49.460;10.850;2023-07-31T09:48:13;24.90;65.10
41437;DHT22;27178;49.460;10.850;2023-07-31T09:50:43;24.90;64.60
41437;DHT22;27178;49.460;10.850;2023-07-31T09:53:12;24.90;64.60
41437;DHT22;27178;49.460;10.850;2023-07-31T09:55:42;25.10;64.50
41437;DHT22;27178;49.460;10.850;2023-07-31T09:58:12;23.70;63.30
41437;DHT22;27178;49.460;10.850;2023-07-31T10:00:41;24.10;63.90
41437;DHT22;27178;49.460;10.850;2023-07-31T10:03:11;25.20;64.60
41437;DHT22;27178;49.460;10.850;2023-07-31T10:05:42;24.20;63.70
41437;DHT22;27178;49.460;10.850;2023-07-31T10:08:14;23.70;63.00
41437;DHT22;27178;49.460;10.850;2023-07-31T10:10:45;23.70;62.70
41437;DHT22;27178;49.460;10.850;2023-07-31T10:13:14;24.00;63.20
41437;DHT22;27178;49.460;10.850;2023-07-31T10:15:42;24.10;63.10
41437;DHT22;27178;49.460;10.850;2023-07-31T10:18:11;23.70;62.40
41437;DHT22;27178;49.460;10.850;2023-07-31T10:20:40;24.30;63.00
41437;DHT22;27178;49.460;10.850;2023-07-31T10:23:09;23.70;63.00
41437;DHT22;27178;49.460;10.850;2023-07-31T10:25:39;24.00;62.90
41437;DHT22;27178;49.460;10.850;2023-07-31T10:28:10;23.80;62.90
41437;DHT22;27178;49.460;10.850;2023-07-31T10:30:41;23.80;62.90
41437;DHT22;27178;49.460;10.850;2023-07-31T10:33:09;24.30;63.00
41437;DHT22;27178;49.460;10.850;2023-07-31T10:35:38;24.00;62.50
41437;DHT22;27178;49.460;10.850;2023-07-31T10:38:10;25.00;62.70
41437;DHT22;27178;49.460;10.850;2023-07-31T10:40:40;24.10;61.60
41437;DHT22;27178;49.460;10.850;2023-07-31T10:43:23;24.50;61.90
41437;DHT22;27178;49.460;10.850;2023-07-31T10:45:53;24.20;60.30
41437;DHT22;27178;49.460;10.850;2023-07-31T10:48:21;24.10;61.50
41437;DHT22;27178;49.460;10.850;2023-07-31T10:50:52;24.30;61.90
41437;DHT22;27178;49.460;10.850;2023-07-31T10:53:24;24.90;62.40
41437;DHT22;27178;49.460;10.850;2023-07-31T10:55:53;24.50;61.70
41437;DHT22;27178;49.460;10.850;2023-07-31T10:58:45;24.30;62.00
41437;DHT22;27178;49.460;10.850;2023-07-31T11:01:13;24.40;61.30
41437;DHT22;27178;49.460;10.850;2023-07-31T11:03:43;24.50;61.20
41437;DHT22;27178;49.460;10.850;2023-07-31T11:06:12;24.90;61.60
41437;DHT22;27178;49.460;10.850;2023-07-31T11:08:45;25.20;61.90
41437;DHT22;27178;49.460;10.850;2023-07-31T11:11:15;24.50;61.70
41437;DHT22;27178;49.460;10.850;2023-07-31T11:13:47;24.60;61.40
41437;DHT22;27178;49.460;10.850;2023-07-31T11:16:17;24.60;61.30
41437;DHT22;27178;49.460;10.850;2023-07-31T11:18:47;24.60;61.60
41437;DHT22;27178;49.460;10.850;2023-07-31T11:21:17;24.60;61.40
41437;DHT22;27178;49.460;10.850;2023-07-31T11:23:46;24.60;61.20
41437;DHT22;27178;49.460;10.850;2023-07-31T11:26:15;24.60;61.00
41437;DHT22;27178;49.460;10.850;2023-07-31T11:28:48;24.60;60.70
41437;DHT22;27178;49.460;10.850;2023-07-31T11:31:17;24.70;60.50
41437;DHT22;27178;49.460;10.850;2023-07-31T11:33:46;24.60;61.00
41437;DHT22;27178;49.460;10.850;2023-07-31T11:36:18;24.60;61.00
41437;DHT22;27178;49.460;10.850;2023-07-31T11:38:46;24.60;60.70
41437;DHT22;27178;49.460;10.850;2023-07-31T11:41:15;24.60;60.90
41437;DHT22;27178;49.460;10.850;2023-07-31T11:43:47;24.60;61.20
41437;DHT22;27178;49.460;10.850;2023-07-31T11:46:15;24.60;61.90
41437;DHT22;27178;49.460;10.850;2023-07-31T11:48:45;24.60;60.80
41437;DHT22;27178;49.460;10.850;2023-07-31T11:51:13;24.60;61.10
41437;DHT22;27178;49.460;10.850;2023-07-31T11:53:44;24.70;61.20
41437;DHT22;27178;49.460;10.850;2023-07-31T11:56:14;24.80;60.90
41437;DHT22;27178;49.460;10.850;2023-07-31T11:58:48;24.80;60.90
41437;DHT22;27178;49.460;10.850;2023-07-31T12:01:19;24.80;60.50
41437;DHT22;27178;49.460;10.850;2023-07-31T12:03:48;24.80;60.50
41437;DHT22;27178;49.460;10.850;2023-07-31T12:06:17;24.80;60.90
41437;DHT22;27178;49.460;10.850;2023-07-31T12:08:47;24.90;61.10
41437;DHT22;27178;49.460;10.850;2023-07-31T12:11:15;24.80;60.50
41437;DHT22;27178;49.460;10.850;2023-07-31T12:13:44;24.80;60.50
41437;DHT22;27178;49.460;10.850;2023-07-31T12:16:14;24.90;60.50
41437;DHT22;27178;49.460;10.850;2023-07-31T12:18:43;24.90;60.30
41437;DHT22;27178;49.460;10.850;2023-07-31T12:21:11;24.90;60.30
41437;DHT22;27178;49.460;10.850;2023-07-31T12:23:40;25.00;60.20
41437;DHT22;27178;49.460;10.850;2023-07-31T12:26:13;25.00;60.20
41437;DHT22;27178;49.460;10.850;2023-07-31T12:28:43;25.10;59.90
41437;DHT22;27178;49.460;10.850;2023-07-31T12:31:14;25.10;60.50
41437;DHT22;27178;49.460;10.850;2023-07-31T12:33:44;25.20;59.50
41437;DHT22;27178;49.460;10.850;2023-07-31T12:36:15;25.20;60.10
41437;DHT22;27178;49.460;10.850;2023-07-31T12:38:44;25.20;60.10
41437;DHT22;27178;49.460;10.850;2023-07-31T12:41:13;25.30;60.10
41437;DHT22;27178;49.460;10.850;2023-07-31T12:43:43;25.40;60.40
41437;DHT22;27178;49.460;10.850;2023-07-31T12:46:13;25.40;60.50
41437;DHT22;27178;49.460;10.850;2023-07-31T12:48:43;25.50;59.90
41437;DHT22;27178;49.460;10.850;2023-07-31T12:51:11;25.60;59.50
41437;DHT22;27178;49.460;10.850;2023-07-31T12:53:39;25.60;59.40
41437;DHT22;27178;49.460;10.850;2023-07-31T12:56:08;25.60;58.80
41437;DHT22;27178;49.460;10.850;2023-07-31T12:58:36;25.70;59.10
41437;DHT22;27178;49.460;10.850;2023-07-31T13:01:04;25.70;59.00
41437;DHT22;27178;49.460;10.850;2023-07-31T13:03:35;25.70;59.10
41437;DHT22;27178;49.460;10.850;2023-07-31T13:06:03;25.70;59.30
41437;DHT22;27178;49.460;10.850;2023-07-31T13:08:32;25.80;59.40
41437;DHT22;27178;49.460;10.850;2023-07-31T13:11:00;25.90;59.60
41437;DHT22;27178;49.460;10.850;2023-07-31T13:13:29;26.00;58.80
41437;DHT22;27178;49.460;10.850;2023-07-31T13:15:59;26.20;58.30
41437;DHT22;27178;49.460;10.850;2023-07-31T13:18:27;26.30;58.80
41437;DHT22;27178;49.460;10.850;2023-07-31T13:20:57;26.40;58.70
41437;DHT22;27178;49.460;10.850;2023-07-31T13:23:25;26.50;58.70
41437;DHT22;27178;49.460;10.850;2023-07-31T13:25:54;26.60;59.00
41437;DHT22;27178;49.460;10.850;2023-07-31T13:28:22;26.70;58.60
41437;DHT22;27178;49.460;10.850;2023-07-31T13:30:50;26.80;59.00
41437;DHT22;27178;49.460;10.850;2023-07-31T13:33:18;26.80;58.10
41437;DHT22;27178;49.460;10.850;2023-07-31T13:36:04;26.80;57.50
41437;DHT22;27178;49.460;10.850;2023-07-31T13:38:33;26.90;58.00
41437;DHT22;27178;49.460;10.850;2023-07-31T13:41:02;27.00;58.40
41437;DHT22;27178;49.460;10.850;2023-07-31T13:43:30;27.10;58.20
41437;DHT22;27178;49.460;10.850;2023-07-31T13:45:58;27.10;57.60
41437;DHT22;27178;49.460;10.850;2023-07-31T13:48:30;27.20;57.70
41437;DHT22;27178;49.460;10.850;2023-07-31T13:50:59;27.30;58.40
41437;DHT22;27178;49.460;10.850;2023-07-31T13:53:28;27.30;56.90
41437;DHT22;27178;49.460;10.850;2023-07-31T13:55:57;27.30;57.00
41437;DHT22;27178;49.460;10.850;2023-07-31T13:58:25;27.30;57.10
41437;DHT22;27178;49.460;10.850;2023-07-31T14:00:53;27.30;57.40
41437;DHT22;27178;49.460;10.850;2023-07-31T14:03:22;27.40;57.20
41437;DHT22;27178;49.460;10.850;2023-07-31T14:05:52;27.40;56.90
41437;DHT22;27178;49.460;10.850;2023-07-31T14:08:21;27.50;56.80
41437;DHT22;27178;49.460;10.850;2023-07-31T14:10:50;27.50;56.60
41437;DHT22;27178;49.460;10.850;2023-07-31T14:13:18;27.50;56.30
41437;DHT22;27178;49.460;10.850;2023-07-31T14:15:46;27.50;56.80
41437;DHT22;27178;49.460;10.850;2023-07-31T14:18:15;27.70;57.00
41437;DHT22;27178;49.460;10.850;2023-07-31T14:21:02;27.70;57.10
41437;DHT22;27178;49.460;10.850;2023-07-31T14:23:30;27.80;54.00
41437;DHT22;27178;49.460;10.850;2023-07-31T14:26:00;27.90;56.50
41437;DHT22;27178;49.460;10.850;2023-07-31T14:28:29;27.90;55.80
41437;DHT22;27178;49.460;10.850;2023-07-31T14:30:57;27.90;55.90
41437;DHT22;27178;49.460;10.850;2023-07-31T14:33:26;27.90;56.00
41437;DHT22;27178;49.460;10.850;2023-07-31T14:35:54;27.80;55.60
41437;DHT22;27178;49.460;10.850;2023-07-31T14:38:23;27.70;55.70
41437;DHT22;27178;49.460;10.850;2023-07-31T14:40:51;27.70;55.90
41437;DHT22;27178;49.460;10.850;2023-07-31T14:43:21;27.60;55.80
41437;DHT22;27178;49.460;10.850;2023-07-31T14:45:49;27.50;55.80
41437;DHT22;27178;49.460;10.850;2023-07-31T14:48:18;27.40;55.60
41437;DHT22;27178;49.460;10.850;2023-07-31T14:50:46;27.30;55.50
41437;DHT22;27178;49.460;10.850;2023-07-31T14:53:15;27.30;55.80
41437;DHT22;27178;49.460;10.850;2023-07-31T14:55:44;27.20;55.90
41437;DHT22;27178;49.460;10.850;2023-07-31T14:58:12;27.10;55.90
41437;DHT22;27178;49.460;10.850;2023-07-31T15:00:43;26.90;55.60
41437;DHT22;27178;49.460;10.850;2023-07-31T15:03:11;26.80;55.70
41437;DHT22;27178;49.460;10.850;2023-07-31T15:05:39;26.80;55.90
41437;DHT22;27178;49.460;10.850;2023-07-31T15:08:08;26.70;56.00
41437;DHT22;27178;49.460;10.850;2023-07-31T15:10:36;26.60;56.00
41437;DHT22;27178;49.460;10.850;2023-07-31T15:13:04;26.50;56.00
41437;DHT22;27178;49.460;10.850;2023-07-31T15:15:33;26.50;56.30
41437;DHT22;27178;49.460;10.850;2023-07-31T15:18:03;26.40;56.60
41437;DHT22;27178;49.460;10.850;2023-07-31T15:20:31;26.30;56.40
41437;DHT22;27178;49.460;10.850;2023-07-31T15:23:00;26.20;56.70
41437;DHT22;27178;49.460;10.850;2023-07-31T15:25:29;26.20;56.80
41437;DHT22;27178;49.460;10.850;2023-07-31T15:27:57;26.20;56.70